sensor_id;sensor_type;location;lat;lon;timestamp;pressure;altitude;pressure_sealevel;temperature;humidity
36242;BME280;22283;42.748;12.732;2023-04-05T00:04:47;97774.66;;;5.33;62.36
36242;BME280;22283;42.748;12.732;2023-04-05T00:09:51;97770.81;;;5.55;59.08
36242;BME280;22283;42.748;12.732;2023-04-05T00:14:52;97779.16;;;5.61;60.06
36242;BME280;22283;42.748;12.732;2023-04-05T00:19:52;97784.91;;;5.68;61.04
36242;BME280;22283;42.748;12.732;2023-04-05T00:24:56;97781.22;;;5.56;65.70
36242;BME280;22283;42.748;12.732;2023-04-05T00:29:57;97777.91;;;5.53;68.59
36242;BME280;22283;42.748;12.732;2023-04-05T00:34:57;97775.47;;;5.50;70.95
36242;BME280;22283;42.748;12.732;2023-04-05T00:39:58;97774.31;;;5.39;72.91
36242;BME280;22283;42.748;12.732;2023-04-05T00:44:59;97788.34;;;5.38;74.29
36242;BME280;22283;42.748;12.732;2023-04-05T00:50:00;97784.31;;;5.33;76.08
36242;BME280;22283;42.748;12.732;2023-04-05T00:55:01;97772.47;;;5.26;78.95
36242;BME280;22283;42.748;12.732;2023-04-05T01:00:02;97779.69;;;5.22;81.39
36242;BME280;22283;42.748;12.732;2023-04-05T01:05:28;97760.16;;;5.12;82.10
36242;BME280;22283;42.748;12.732;2023-04-05T01:10:34;97768.63;;;5.17;82.75
36242;BME280;22283;42.748;12.732;2023-04-05T01:15:37;97770.00;;;5.08;84.65
36242;BME280;22283;42.748;12.732;2023-04-05T01:20:43;97769.66;;;4.99;86.64
36242;BME280;22283;42.748;12.732;2023-04-05T01:36:42;97770.44;;;4.85;88.97
36242;BME280;22283;42.748;12.732;2023-04-05T01:41:44;97770.13;;;4.75;90.37
36242;BME280;22283;42.748;12.732;2023-04-05T01:46:45;97756.13;;;4.75;86.83
36242;BME280;22283;42.748;12.732;2023-04-05T01:51:47;97755.28;;;4.74;88.73
36242;BME280;22283;42.748;12.732;2023-04-05T01:56:49;97761.22;;;4.78;88.98
36242;BME280;22283;42.748;12.732;2023-04-05T02:01:51;97760.06;;;4.67;90.81
36242;BME280;22283;42.748;12.732;2023-04-05T02:06:52;97756.13;;;4.59;91.54
36242;BME280;22283;42.748;12.732;2023-04-05T02:11:52;97752.59;;;4.60;91.34
36242;BME280;22283;42.748;12.732;2023-04-05T02:16:53;97757.00;;;4.59;91.78
36242;BME280;22283;42.748;12.732;2023-04-05T02:21:55;97754.28;;;4.61;91.11
36242;BME280;22283;42.748;12.732;2023-04-05T02:26:56;97764.78;;;4.61;90.38
36242;BME280;22283;42.748;12.732;2023-04-05T02:31:58;97767.97;;;4.66;87.94
36242;BME280;22283;42.748;12.732;2023-04-05T02:36:58;97762.56;;;4.69;86.09
36242;BME280;22283;42.748;12.732;2023-04-05T02:41:59;97760.19;;;4.96;86.63
36242;BME280;22283;42.748;12.732;2023-04-05T02:47:00;97765.59;;;4.93;85.69
36242;BME280;22283;42.748;12.732;2023-04-05T02:52:05;97761.03;;;4.97;86.74
36242;BME280;22283;42.748;12.732;2023-04-05T02:57:06;97765.09;;;4.86;88.27
36242;BME280;22283;42.748;12.732;2023-04-05T03:02:18;97762.72;;;4.82;87.29
36242;BME280;22283;42.748;12.732;2023-04-05T03:07:19;97762.72;;;4.82;86.74
36242;BME280;22283;42.748;12.732;2023-04-05T03:12:22;97758.34;;;4.82;86.31
36242;BME280;22283;42.748;12.732;2023-04-05T03:17:23;97764.25;;;4.86;89.20
36242;BME280;22283;42.748;12.732;2023-04-05T03:22:34;97773.38;;;4.79;88.51
36242;BME280;22283;42.748;12.732;2023-04-05T03:27:37;97772.78;;;4.89;90.59
36242;BME280;22283;42.748;12.732;2023-04-05T03:32:47;97771.03;;;4.74;94.26
36242;BME280;22283;42.748;12.732;2023-04-05T03:38:08;97774.31;;;4.62;94.12
36242;BME280;22283;42.748;12.732;2023-04-05T03:43:13;97771.13;;;4.57;93.84
36242;BME280;22283;42.748;12.732;2023-04-05T03:48:13;97762.88;;;4.47;93.54
36242;BME280;22283;42.748;12.732;2023-04-05T03:53:21;97784.72;;;4.48;96.93
36242;BME280;22283;42.748;12.732;2023-04-05T03:58:26;97783.00;;;4.47;97.89
36242;BME280;22283;42.748;12.732;2023-04-05T04:03:29;97781.81;;;4.36;100.00
36242;BME280;22283;42.748;12.732;2023-04-05T04:08:30;97780.13;;;4.35;100.00
36242;BME280;22283;42.748;12.732;2023-04-05T04:13:33;97765.75;;;4.27;100.00
36242;BME280;22283;42.748;12.732;2023-04-05T04:18:56;97775.38;;;4.26;100.00
36242;BME280;22283;42.748;12.732;2023-04-05T04:24:18;97776.22;;;4.27;100.00
36242;BME280;22283;42.748;12.732;2023-04-05T04:29:42;97786.19;;;4.20;100.00
36242;BME280;22283;42.748;12.732;2023-04-05T04:35:19;97779.44;;;4.16;100.00
36242;BME280;22283;42.748;12.732;2023-04-05T04:40:38;97786.34;;;4.17;100.00
36242;BME280;22283;42.748;12.732;2023-04-05T04:45:59;97791.25;;;4.23;100.00
36242;BME280;22283;42.748;12.732;2023-04-05T04:51:12;97790.50;;;4.21;100.00
36242;BME280;22283;42.748;12.732;2023-04-05T04:56:12;97795.97;;;4.16;99.95
36242;BME280;22283;42.748;12.732;2023-04-05T05:01:13;97793.13;;;4.21;97.90
36242;BME280;22283;42.748;12.732;2023-04-05T05:06:17;97803.19;;;4.29;95.64
36242;BME280;22283;42.748;12.732;2023-04-05T05:11:18;97798.38;;;4.37;90.20
36242;BME280;22283;42.748;12.732;2023-04-05T05:16:21;97803.66;;;4.53;89.88
36242;BME280;22283;42.748;12.732;2023-04-05T05:21:22;97802.03;;;4.66;86.20
36242;BME280;22283;42.748;12.732;2023-04-05T05:26:30;97798.31;;;4.70;90.05
36242;BME280;22283;42.748;12.732;2023-04-05T05:31:31;97804.34;;;4.72;86.11
36242;BME280;22283;42.748;12.732;2023-04-05T05:36:33;97807.13;;;4.85;85.81
36242;BME280;22283;42.748;12.732;2023-04-05T05:41:34;97803.91;;;4.96;84.35
36242;BME280;22283;42.748;12.732;2023-04-05T05:46:35;97814.72;;;4.89;86.99
36242;BME280;22283;42.748;12.732;2023-04-05T05:51:36;97807.44;;;4.94;89.51
36242;BME280;22283;42.748;12.732;2023-04-05T05:56:37;97812.78;;;5.09;91.60
36242;BME280;22283;42.748;12.732;2023-04-05T06:01:37;97820.97;;;5.03;92.63
36242;BME280;22283;42.748;12.732;2023-04-05T06:06:42;97815.97;;;5.14;91.53
36242;BME280;22283;42.748;12.732;2023-04-05T06:11:43;97809.88;;;5.29;82.24
36242;BME280;22283;42.748;12.732;2023-04-05T06:16:44;97814.75;;;5.51;80.85
36242;BME280;22283;42.748;12.732;2023-04-05T06:21:44;97816.22;;;5.71;79.95
36242;BME280;22283;42.748;12.732;2023-04-05T06:26:45;97803.91;;;6.02;79.53
36242;BME280;22283;42.748;12.732;2023-04-05T06:31:46;97797.88;;;6.30;74.98
36242;BME280;22283;42.748;12.732;2023-04-05T06:36:47;97805.25;;;6.52;75.80
36242;BME280;22283;42.748;12.732;2023-04-05T06:41:48;97793.38;;;6.87;73.21
36242;BME280;22283;42.748;12.732;2023-04-05T06:46:49;97790.88;;;7.13;67.83
36242;BME280;22283;42.748;12.732;2023-04-05T06:51:49;97796.72;;;7.31;67.66
36242;BME280;22283;42.748;12.732;2023-04-05T06:56:50;97792.25;;;7.46;66.01
36242;BME280;22283;42.748;12.732;2023-04-05T07:01:51;97791.00;;;7.51;66.48
36242;BME280;22283;42.748;12.732;2023-04-05T07:06:52;97800.63;;;7.65;68.26
36242;BME280;22283;42.748;12.732;2023-04-05T07:11:53;97799.81;;;8.03;67.42
36242;BME280;22283;42.748;12.732;2023-04-05T07:16:53;97797.31;;;8.52;63.80
36242;BME280;22283;42.748;12.732;2023-04-05T07:21:55;97809.94;;;8.73;62.03
36242;BME280;22283;42.748;12.732;2023-04-05T07:26:56;97799.34;;;8.85;56.23
36242;BME280;22283;42.748;12.732;2023-04-05T07:31:57;97792.81;;;8.91;54.22
36242;BME280;22283;42.748;12.732;2023-04-05T07:36:58;97798.81;;;8.44;54.92
36242;BME280;22283;42.748;12.732;2023-04-05T07:41:58;97811.41;;;8.77;54.75
36242;BME280;22283;42.748;12.732;2023-04-05T07:46:59;97806.69;;;9.06;53.22
36242;BME280;22283;42.748;12.732;2023-04-05T07:52:00;97803.16;;;9.42;52.25
36242;BME280;22283;42.748;12.732;2023-04-05T07:57:01;97810.50;;;9.50;51.78
36242;BME280;22283;42.748;12.732;2023-04-05T08:02:02;97808.72;;;9.74;53.22
36242;BME280;22283;42.748;12.732;2023-04-05T08:07:03;97812.75;;;9.67;52.96
36242;BME280;22283;42.748;12.732;2023-04-05T08:12:04;97800.03;;;9.72;51.31
36242;BME280;22283;42.748;12.732;2023-04-05T08:17:06;97809.59;;;9.38;51.53
36242;BME280;22283;42.748;12.732;2023-04-05T08:22:06;97796.75;;;9.33;52.44
36242;BME280;22283;42.748;12.732;2023-04-05T08:27:07;97795.13;;;9.44;51.64
36242;BME280;22283;42.748;12.732;2023-04-05T08:32:08;97795.41;;;9.28;52.09
36242;BME280;22283;42.748;12.732;2023-04-05T08:37:08;97799.94;;;9.50;51.95
36242;BME280;22283;42.748;12.732;2023-04-05T08:42:15;97792.66;;;9.89;50.63
36242;BME280;22283;42.748;12.732;2023-04-05T08:47:18;97814.56;;;9.67;50.98
36242;BME280;22283;42.748;12.732;2023-04-05T08:52:19;97799.13;;;9.84;50.14
36242;BME280;22283;42.748;12.732;2023-04-05T08:57:24;97800.47;;;10.01;49.74
36242;BME280;22283;42.748;12.732;2023-04-05T09:02:27;97803.34;;;10.33;49.26
36242;BME280;22283;42.748;12.732;2023-04-05T09:07:29;97792.25;;;10.96;49.52
36242;BME280;22283;42.748;12.732;2023-04-05T09:12:31;97804.00;;;11.25;48.19
36242;BME280;22283;42.748;12.732;2023-04-05T09:17:32;97808.78;;;11.64;48.59
36242;BME280;22283;42.748;12.732;2023-04-05T09:22:44;97803.84;;;11.70;46.43
36242;BME280;22283;42.748;12.732;2023-04-05T09:27:54;97815.09;;;11.08;48.27
36242;BME280;22283;42.748;12.732;2023-04-05T09:32:58;97801.59;;;11.22;46.65
36242;BME280;22283;42.748;12.732;2023-04-05T09:38:03;97810.22;;;11.36;46.94
36242;BME280;22283;42.748;12.732;2023-04-05T09:43:06;97807.38;;;11.16;46.83
36242;BME280;22283;42.748;12.732;2023-04-05T09:48:08;97818.19;;;11.24;46.40
36242;BME280;22283;42.748;12.732;2023-04-05T09:53:11;97807.09;;;11.30;46.20
36242;BME280;22283;42.748;12.732;2023-04-05T09:58:20;97806.44;;;11.17;46.62
36242;BME280;22283;42.748;12.732;2023-04-05T10:03:23;97802.94;;;11.60;47.98
36242;BME280;22283;42.748;12.732;2023-04-05T10:08:24;97804.38;;;11.64;45.66
36242;BME280;22283;42.748;12.732;2023-04-05T10:13:25;97797.44;;;12.05;44.92
36242;BME280;22283;42.748;12.732;2023-04-05T10:18:29;97794.47;;;12.50;44.57
36242;BME280;22283;42.748;12.732;2023-04-05T10:23:41;97797.28;;;12.06;44.99
36242;BME280;22283;42.748;12.732;2023-04-05T10:28:46;97795.31;;;12.20;43.30
36242;BME280;22283;42.748;12.732;2023-04-05T10:33:55;97791.53;;;12.43;43.70
36242;BME280;22283;42.748;12.732;2023-04-05T10:39:12;97799.69;;;12.61;43.08
36242;BME280;22283;42.748;12.732;2023-04-05T10:44:14;97789.19;;;13.31;40.72
36242;BME280;22283;42.748;12.732;2023-04-05T10:54:21;97776.72;;;13.89;39.65
36242;BME280;22283;42.748;12.732;2023-04-05T10:59:23;97789.25;;;14.45;38.03
36242;BME280;22283;42.748;12.732;2023-04-05T11:04:24;97777.34;;;14.87;37.69
36242;BME280;22283;42.748;12.732;2023-04-05T11:09:25;97774.94;;;14.46;38.26
36242;BME280;22283;42.748;12.732;2023-04-05T11:25:00;97766.78;;;12.43;39.82
36242;BME280;22283;42.748;12.732;2023-04-05T11:30:04;97778.34;;;12.32;39.68
36242;BME280;22283;42.748;12.732;2023-04-05T11:35:06;97775.06;;;12.49;40.12
36242;BME280;22283;42.748;12.732;2023-04-05T11:40:24;97766.28;;;12.59;40.81
36242;BME280;22283;42.748;12.732;2023-04-05T11:45:26;97760.81;;;11.99;41.23
36242;BME280;22283;42.748;12.732;2023-04-05T11:50:27;97757.66;;;11.20;44.76
36242;BME280;22283;42.748;12.732;2023-04-05T11:55:28;97764.84;;;10.86;45.44
36242;BME280;22283;42.748;12.732;2023-04-05T12:00:28;97751.66;;;10.52;46.33
36242;BME280;22283;42.748;12.732;2023-04-05T12:05:45;97755.72;;;10.45;47.27
36242;BME280;22283;42.748;12.732;2023-04-05T12:10:56;97740.97;;;10.42;47.54
36242;BME280;22283;42.748;12.732;2023-04-05T12:16:01;97753.34;;;10.30;47.51
36242;BME280;22283;42.748;12.732;2023-04-05T12:21:05;97750.41;;;10.11;47.32
36242;BME280;22283;42.748;12.732;2023-04-05T12:26:06;97753.22;;;9.85;49.31
36242;BME280;22283;42.748;12.732;2023-04-05T12:31:09;97752.28;;;9.75;49.57
36242;BME280;22283;42.748;12.732;2023-04-05T12:36:12;97758.88;;;9.81;49.50
36242;BME280;22283;42.748;12.732;2023-04-05T12:41:13;97748.22;;;9.82;49.89
36242;BME280;22283;42.748;12.732;2023-04-05T12:46:17;97753.16;;;9.98;51.35
36242;BME280;22283;42.748;12.732;2023-04-05T12:51:18;97739.84;;;10.11;50.20
36242;BME280;22283;42.748;12.732;2023-04-05T12:56:19;97752.09;;;10.12;47.55
36242;BME280;22283;42.748;12.732;2023-04-05T13:01:20;97738.88;;;10.23;46.99
36242;BME280;22283;42.748;12.732;2023-04-05T13:06:21;97746.38;;;10.29;47.04
36242;BME280;22283;42.748;12.732;2023-04-05T13:11:22;97747.56;;;10.37;47.65
36242;BME280;22283;42.748;12.732;2023-04-05T13:16:23;97745.66;;;10.39;46.79
36242;BME280;22283;42.748;12.732;2023-04-05T13:21:23;97755.47;;;10.25;46.94
36242;BME280;22283;42.748;12.732;2023-04-05T13:26:25;97752.34;;;10.20;46.83
36242;BME280;22283;42.748;12.732;2023-04-05T13:31:26;97763.50;;;10.13;46.87
36242;BME280;22283;42.748;12.732;2023-04-05T13:36:26;97751.63;;;10.18;46.74
36242;BME280;22283;42.748;12.732;2023-04-05T13:41:27;97751.97;;;10.14;46.68
36242;BME280;22283;42.748;12.732;2023-04-05T13:46:28;97759.03;;;10.13;46.97
36242;BME280;22283;42.748;12.732;2023-04-05T13:51:29;97755.22;;;10.06;47.27
36242;BME280;22283;42.748;12.732;2023-04-05T13:56:34;97751.44;;;9.97;47.24
36242;BME280;22283;42.748;12.732;2023-04-05T14:01:34;97758.22;;;10.13;47.29
36242;BME280;22283;42.748;12.732;2023-04-05T14:06:36;97752.81;;;10.14;46.53
36242;BME280;22283;42.748;12.732;2023-04-05T14:11:37;97750.72;;;10.42;47.72
36242;BME280;22283;42.748;12.732;2023-04-05T14:16:38;97750.91;;;10.61;47.11
36242;BME280;22283;42.748;12.732;2023-04-05T14:21:38;97747.19;;;10.75;47.31
36242;BME280;22283;42.748;12.732;2023-04-05T14:26:40;97741.28;;;10.82;48.16
36242;BME280;22283;42.748;12.732;2023-04-05T14:31:41;97750.72;;;11.07;46.66
36242;BME280;22283;42.748;12.732;2023-04-05T14:36:41;97747.50;;;10.93;47.71
36242;BME280;22283;42.748;12.732;2023-04-05T14:41:42;97744.84;;;10.93;46.47
36242;BME280;22283;42.748;12.732;2023-04-05T14:46:45;97747.22;;;11.07;46.08
36242;BME280;22283;42.748;12.732;2023-04-05T14:51:46;97742.94;;;10.95;46.13
36242;BME280;22283;42.748;12.732;2023-04-05T14:56:46;97746.31;;;10.97;46.19
36242;BME280;22283;42.748;12.732;2023-04-05T15:01:47;97749.47;;;10.79;47.29
36242;BME280;22283;42.748;12.732;2023-04-05T15:06:48;97752.63;;;10.62;47.54
36242;BME280;22283;42.748;12.732;2023-04-05T15:11:48;97759.25;;;10.34;48.98
36242;BME280;22283;42.748;12.732;2023-04-05T15:16:49;97763.50;;;10.24;49.77
36242;BME280;22283;42.748;12.732;2023-04-05T15:21:50;97766.22;;;9.89;50.07
36242;BME280;22283;42.748;12.732;2023-04-05T15:26:51;97771.72;;;9.74;50.84
36242;BME280;22283;42.748;12.732;2023-04-05T15:31:52;97775.38;;;9.60;50.32
36242;BME280;22283;42.748;12.732;2023-04-05T15:36:53;97783.13;;;9.40;51.01
36242;BME280;22283;42.748;12.732;2023-04-05T15:41:54;97784.63;;;9.31;51.82
36242;BME280;22283;42.748;12.732;2023-04-05T15:46:56;97786.47;;;9.42;50.71
36242;BME280;22283;42.748;12.732;2023-04-05T15:51:58;97777.66;;;9.30;50.74
36242;BME280;22283;42.748;12.732;2023-04-05T15:57:05;97781.09;;;9.43;50.97
36242;BME280;22283;42.748;12.732;2023-04-05T16:02:07;97782.34;;;9.61;50.47
36242;BME280;22283;42.748;12.732;2023-04-05T16:07:09;97785.50;;;9.67;50.13
36242;BME280;22283;42.748;12.732;2023-04-05T16:12:11;97781.41;;;9.74;48.92
36242;BME280;22283;42.748;12.732;2023-04-05T16:17:11;97781.19;;;9.77;49.17
36242;BME280;22283;42.748;12.732;2023-04-05T16:22:12;97793.34;;;9.79;48.98
36242;BME280;22283;42.748;12.732;2023-04-05T16:27:13;97798.50;;;9.22;49.99
36242;BME280;22283;42.748;12.732;2023-04-05T16:32:13;97799.56;;;8.82;51.45
36242;BME280;22283;42.748;12.732;2023-04-05T16:37:14;97818.28;;;8.54;51.54
36242;BME280;22283;42.748;12.732;2023-04-05T16:42:15;97815.88;;;8.51;51.67
36242;BME280;22283;42.748;12.732;2023-04-05T16:47:16;97832.81;;;8.34;54.23
36242;BME280;22283;42.748;12.732;2023-04-05T16:52:16;97822.38;;;8.07;56.00
36242;BME280;22283;42.748;12.732;2023-04-05T16:57:17;97824.78;;;7.84;56.48
36242;BME280;22283;42.748;12.732;2023-04-05T17:02:18;97827.63;;;7.81;56.09
36242;BME280;22283;42.748;12.732;2023-04-05T17:07:19;97831.19;;;7.80;56.21
36242;BME280;22283;42.748;12.732;2023-04-05T17:12:20;97843.47;;;7.67;55.90
36242;BME280;22283;42.748;12.732;2023-04-05T17:17:21;97830.47;;;7.51;56.64
36242;BME280;22283;42.748;12.732;2023-04-05T17:22:21;97836.16;;;7.45;55.77
36242;BME280;22283;42.748;12.732;2023-04-05T17:27:23;97836.69;;;7.23;57.41
36242;BME280;22283;42.748;12.732;2023-04-05T17:32:25;97857.41;;;7.01;58.80
36242;BME280;22283;42.748;12.732;2023-04-05T17:37:27;97868.25;;;6.68;61.40
36242;BME280;22283;42.748;12.732;2023-04-05T17:42:28;97873.94;;;6.31;65.27
36242;BME280;22283;42.748;12.732;2023-04-05T17:47:29;97873.53;;;6.09;66.66
36242;BME280;22283;42.748;12.732;2023-04-05T17:52:29;97876.91;;;5.81;68.93
36242;BME280;22283;42.748;12.732;2023-04-05T17:57:31;97877.16;;;5.76;68.97
36242;BME280;22283;42.748;12.732;2023-04-05T18:02:31;97902.69;;;5.58;69.89
36242;BME280;22283;42.748;12.732;2023-04-05T18:07:39;97908.59;;;5.46;70.54
36242;BME280;22283;42.748;12.732;2023-04-05T18:12:41;97911.44;;;5.27;71.36
36242;BME280;22283;42.748;12.732;2023-04-05T18:17:43;97923.91;;;5.06;73.25
36242;BME280;22283;42.748;12.732;2023-04-05T18:22:44;97943.19;;;4.89;74.87
36242;BME280;22283;42.748;12.732;2023-04-05T18:27:45;97948.00;;;4.81;76.16
36242;BME280;22283;42.748;12.732;2023-04-05T18:32:46;97950.16;;;4.73;76.76
36242;BME280;22283;42.748;12.732;2023-04-05T18:37:46;97947.84;;;4.67;77.01
36242;BME280;22283;42.748;12.732;2023-04-05T18:42:47;97957.72;;;4.62;77.66
36242;BME280;22283;42.748;12.732;2023-04-05T18:47:48;97960.50;;;4.59;77.47
36242;BME280;22283;42.748;12.732;2023-04-05T18:52:49;97969.44;;;4.55;78.08
36242;BME280;22283;42.748;12.732;2023-04-05T18:57:50;97975.88;;;4.49;78.64
36242;BME280;22283;42.748;12.732;2023-04-05T19:02:51;97980.41;;;4.46;78.71
36242;BME280;22283;42.748;12.732;2023-04-05T19:07:51;97979.50;;;4.29;79.02
36242;BME280;22283;42.748;12.732;2023-04-05T19:12:52;97985.34;;;4.34;78.97
36242;BME280;22283;42.748;12.732;2023-04-05T19:17:53;97997.34;;;4.38;78.92
36242;BME280;22283;42.748;12.732;2023-04-05T19:22:54;97992.22;;;4.37;79.42
36242;BME280;22283;42.748;12.732;2023-04-05T19:27:54;97990.66;;;4.33;79.41
36242;BME280;22283;42.748;12.732;2023-04-05T19:32:55;98000.44;;;4.29;80.52
36242;BME280;22283;42.748;12.732;2023-04-05T19:37:57;97987.34;;;4.12;81.63
36242;BME280;22283;42.748;12.732;2023-04-05T19:43:00;98000.81;;;4.04;82.14
36242;BME280;22283;42.748;12.732;2023-04-05T19:48:01;97990.53;;;3.82;82.33
36242;BME280;22283;42.748;12.732;2023-04-05T19:53:06;98003.28;;;3.71;83.31
36242;BME280;22283;42.748;12.732;2023-04-05T19:58:08;98004.84;;;3.56;84.62
36242;BME280;22283;42.748;12.732;2023-04-05T20:03:29;98001.09;;;3.43;84.37
36242;BME280;22283;42.748;12.732;2023-04-05T20:08:34;98005.34;;;3.45;85.57
36242;BME280;22283;42.748;12.732;2023-04-05T20:13:41;98006.97;;;3.29;88.34
36242;BME280;22283;42.748;12.732;2023-04-05T20:18:46;98010.28;;;3.14;88.41
36242;BME280;22283;42.748;12.732;2023-04-05T20:23:47;98011.34;;;3.10;87.71
36242;BME280;22283;42.748;12.732;2023-04-05T20:28:52;98008.56;;;2.94;89.41
36242;BME280;22283;42.748;12.732;2023-04-05T20:33:58;98005.56;;;2.83;89.97
36242;BME280;22283;42.748;12.732;2023-04-05T20:39:07;98006.03;;;2.72;90.37
36242;BME280;22283;42.748;12.732;2023-04-05T20:44:08;98018.34;;;2.70;90.69
36242;BME280;22283;42.748;12.732;2023-04-05T20:49:09;98015.38;;;2.78;90.15
36242;BME280;22283;42.748;12.732;2023-04-05T20:54:11;98020.88;;;2.71;90.25
36242;BME280;22283;42.748;12.732;2023-04-05T20:59:12;98021.06;;;2.67;90.13
36242;BME280;22283;42.748;12.732;2023-04-05T21:04:13;98029.94;;;2.63;90.90
36242;BME280;22283;42.748;12.732;2023-04-05T21:09:14;98036.34;;;2.56;91.51
36242;BME280;22283;42.748;12.732;2023-04-05T21:14:15;98036.47;;;2.53;92.13
36242;BME280;22283;42.748;12.732;2023-04-05T21:19:16;98034.78;;;2.52;92.37
36242;BME280;22283;42.748;12.732;2023-04-05T21:24:16;98032.81;;;2.36;93.42
36242;BME280;22283;42.748;12.732;2023-04-05T21:29:17;98038.31;;;2.51;93.20
36242;BME280;22283;42.748;12.732;2023-04-05T21:34:18;98040.63;;;2.36;93.72
36242;BME280;22283;42.748;12.732;2023-04-05T21:39:18;98047.66;;;2.14;93.95
36242;BME280;22283;42.748;12.732;2023-04-05T21:44:20;98047.84;;;1.87;95.99
36242;BME280;22283;42.748;12.732;2023-04-05T21:49:20;98054.13;;;1.60;96.72
36242;BME280;22283;42.748;12.732;2023-04-05T21:54:21;98050.88;;;1.31;100.00
36242;BME280;22283;42.748;12.732;2023-04-05T21:59:22;98053.94;;;1.19;100.00
36242;BME280;22283;42.748;12.732;2023-04-05T22:04:22;98037.13;;;1.03;100.00
36242;BME280;22283;42.748;12.732;2023-04-05T22:09:25;98037.47;;;0.93;100.00
36242;BME280;22283;42.748;12.732;2023-04-05T22:14:27;98046.22;;;0.92;100.00
36242;BME280;22283;42.748;12.732;2023-04-05T22:19:28;98047.22;;;0.88;100.00
36242;BME280;22283;42.748;12.732;2023-04-05T22:24:29;98055.88;;;0.89;100.00
36242;BME280;22283;42.748;12.732;2023-04-05T22:29:30;98054.22;;;0.86;100.00
36242;BME280;22283;42.748;12.732;2023-04-05T22:34:30;98051.75;;;0.83;100.00
36242;BME280;22283;42.748;12.732;2023-04-05T22:39:31;98059.88;;;0.74;100.00
36242;BME280;22283;42.748;12.732;2023-04-05T22:44:32;98060.97;;;0.42;100.00
36242;BME280;22283;42.748;12.732;2023-04-05T22:49:32;98063.13;;;0.29;100.00
36242;BME280;22283;42.748;12.732;2023-04-05T22:54:33;98067.53;;;0.27;100.00
36242;BME280;22283;42.748;12.732;2023-04-05T22:59:34;98077.00;;;0.30;100.00
36242;BME280;22283;42.748;12.732;2023-04-05T23:04:35;98067.94;;;0.15;100.00
36242;BME280;22283;42.748;12.732;2023-04-05T23:09:36;98083.53;;;0.15;100.00
36242;BME280;22283;42.748;12.732;2023-04-05T23:14:36;98084.38;;;0.15;100.00
36242;BME280;22283;42.748;12.732;2023-04-05T23:19:37;98072.81;;;-0.03;100.00
36242;BME280;22283;42.748;12.732;2023-04-05T23:24:38;98080.66;;;-0.04;100.00
36242;BME280;22283;42.748;12.732;2023-04-05T23:29:39;98091.94;;;-0.04;100.00
36242;BME280;22283;42.748;12.732;2023-04-05T23:34:39;98099.06;;;-0.10;100.00
36242;BME280;22283;42.748;12.732;2023-04-05T23:39:41;98105.81;;;-0.05;100.00
36242;BME280;22283;42.748;12.732;2023-04-05T23:44:41;98091.03;;;-0.03;100.00
36242;BME280;22283;42.748;12.732;2023-04-05T23:49:42;98091.63;;;0.06;100.00
36242;BME280;22283;42.748;12.732;2023-04-05T23:54:42;98097.44;;;0.14;100.00
36242;BME280;22283;42.748;12.732;2023-04-05T23:59:43;98095.50;;;0.20;100.00
